Time;durP1;ratioP1;P1;durP2;ratioP2;P2;SDS_P1;SDS_P2;PMS_P1;PMS_P2;Temp;Humidity;BMP_temperature;BMP_pressure;BME280_temperature;BME280_humidity;BME280_pressure;Samples;Min_cycle;Max_cycle;Signal;HPM_P1;HPM_P2
2022/09/13 00:01:15;;;;;;;;;;;22.20;66.70;;;;;;4462532;32;19962;-71
2022/09/13 00:03:40;;;;;;;;;;;22.20;66.60;;;;;;4462022;32;20315;-71
2022/09/13 00:06:07;;;;;;;;;;;22.20;66.70;;;;;;4462301;32;20470;-71
2022/09/13 00:08:33;;;;;;;;;;;22.20;66.60;;;;;;4462216;32;20375;-71
2022/09/13 00:10:59;;;;;;;;;;;22.20;66.70;;;;;;4462112;32;19977;-71
2022/09/13 00:13:24;;;;;;;;;;;22.20;66.70;;;;;;4461631;32;19958;-71
2022/09/13 00:15:50;;;;;;;;;;;22.20;66.70;;;;;;4461081;32;20315;-71
2022/09/13 00:18:17;;;;;;;;;;;22.20;66.60;;;;;;4462225;32;19981;-72
2022/09/13 00:20:43;;;;;;;;;;;22.20;66.70;;;;;;4462222;32;20088;-71
2022/09/13 00:23:08;;;;;;;;;;;22.20;66.70;;;;;;4462280;32;20295;-71
2022/09/13 00:25:34;;;;;;;;;;;22.20;66.70;;;;;;4447675;32;20028;-71
2022/09/13 00:28:00;;;;;;;;;;;22.20;66.70;;;;;;4462260;32;19998;-71
2022/09/13 00:30:26;;;;;;;;;;;22.20;66.60;;;;;;4461919;32;20040;-71
2022/09/13 00:32:52;;;;;;;;;;;22.20;66.60;;;;;;4461606;32;19977;-71
2022/09/13 00:35:18;;;;;;;;;;;22.20;66.60;;;;;;4461895;32;19966;-71
2022/09/13 00:37:43;;;;;;;;;;;22.20;66.60;;;;;;4461809;32;20482;-71
2022/09/13 00:40:09;;;;;;;;;;;22.20;66.60;;;;;;4460692;32;20432;-71
2022/09/13 00:42:36;;;;;;;;;;;22.20;66.60;;;;;;4461593;32;20021;-71
2022/09/13 00:45:11;;;;;;;;;;;22.20;66.60;;;;;;4461728;32;19986;-71
2022/09/13 00:47:39;;;;;;;;;;;22.20;66.60;;;;;;4461714;32;19978;-71
2022/09/13 00:50:13;;;;;;;;;;;22.20;66.60;;;;;;4461368;32;20418;-71
2022/09/13 00:52:40;;;;;;;;;;;22.20;66.70;;;;;;4447944;32;19992;-71
2022/09/13 00:55:26;;;;;;;;;;;22.20;66.70;;;;;;4461713;32;19984;-71
2022/09/13 00:57:55;;;;;;;;;;;22.20;66.60;;;;;;4461426;32;20319;-71
2022/09/13 01:00:21;;;;;;;;;;;22.20;66.60;;;;;;4461439;32;20029;-71
2022/09/13 01:02:50;;;;;;;;;;;22.20;66.60;;;;;;4461557;32;20088;-71
2022/09/13 01:05:18;;;;;;;;;;;22.20;66.70;;;;;;4461722;32;19970;-71
2022/09/13 01:07:45;;;;;;;;;;;22.20;66.60;;;;;;4461429;32;20407;-71
2022/09/13 01:10:11;;;;;;;;;;;22.20;66.60;;;;;;4461455;32;20017;-71
2022/09/13 01:12:48;;;;;;;;;;;22.20;66.60;;;;;;4461186;32;20384;-71
2022/09/13 01:15:14;;;;;;;;;;;22.20;66.60;;;;;;4461629;32;20030;-71
2022/09/13 01:17:41;;;;;;;;;;;22.20;66.60;;;;;;4461057;32;20132;-71
2022/09/13 01:20:07;;;;;;;;;;;22.20;66.60;;;;;;4461025;32;19974;-71
2022/09/13 01:22:33;;;;;;;;;;;22.20;66.70;;;;;;4461026;32;20258;-71
2022/09/13 01:25:08;;;;;;;;;;;22.20;66.60;;;;;;4461219;32;20044;-71
2022/09/13 01:27:49;;;;;;;;;;;22.20;66.60;;;;;;4447513;32;19993;-71
2022/09/13 01:30:17;;;;;;;;;;;22.20;66.60;;;;;;4461145;32;20367;-71
2022/09/13 01:32:45;;;;;;;;;;;22.20;66.60;;;;;;4460912;32;20163;-72
2022/09/13 01:35:15;;;;;;;;;;;22.20;66.60;;;;;;4461182;32;20009;-71
2022/09/13 01:37:41;;;;;;;;;;;22.10;66.60;;;;;;4461138;32;20323;-71
2022/09/13 01:40:23;;;;;;;;;;;22.10;66.60;;;;;;4461172;32;20368;-72
2022/09/13 01:42:52;;;;;;;;;;;22.20;66.60;;;;;;4447158;32;19970;-71
2022/09/13 01:45:27;;;;;;;;;;;22.20;66.60;;;;;;4461607;32;19977;-71
2022/09/13 01:47:53;;;;;;;;;;;22.10;66.60;;;;;;4461170;32;20156;-71
2022/09/13 01:50:22;;;;;;;;;;;22.10;66.60;;;;;;4461009;32;20050;-71
2022/09/13 01:53:04;;;;;;;;;;;22.10;66.60;;;;;;4461452;32;19978;-71
2022/09/13 01:55:36;;;;;;;;;;;22.20;66.60;;;;;;4461072;32;20029;-71
2022/09/13 01:58:31;;;;;;;;;;;22.10;66.60;;;;;;4461023;32;19981;-71
2022/09/13 02:01:17;;;;;;;;;;;22.10;66.50;;;;;;4447453;32;20084;-71
2022/09/13 02:03:59;;;;;;;;;;;22.10;66.50;;;;;;4460811;32;20105;-72
2022/09/13 02:06:27;;;;;;;;;;;22.10;66.60;;;;;;4460706;32;20055;-71
2022/09/13 02:08:55;;;;;;;;;;;22.10;66.60;;;;;;4460934;32;20014;-71
2022/09/13 02:11:21;;;;;;;;;;;22.10;66.60;;;;;;4460878;32;20068;-71
2022/09/13 02:13:56;;;;;;;;;;;22.10;66.60;;;;;;4460691;32;19981;-71
2022/09/13 02:16:34;;;;;;;;;;;22.10;66.60;;;;;;4446870;32;20395;-71
2022/09/13 02:19:12;;;;;;;;;;;22.10;66.60;;;;;;4461196;32;20579;-71
2022/09/13 02:21:39;;;;;;;;;;;22.10;67.40;;;;;;4460789;32;20045;-71
2022/09/13 02:24:06;;;;;;;;;;;22.10;66.60;;;;;;4460809;32;20372;-71
2022/09/13 02:26:33;;;;;;;;;;;22.10;66.60;;;;;;4446624;32;19985;-71
2022/09/13 02:29:01;;;;;;;;;;;22.10;66.60;;;;;;4460619;32;19989;-71
2022/09/13 02:31:29;;;;;;;;;;;22.10;66.60;;;;;;4461065;32;20101;-71
2022/09/13 02:33:58;;;;;;;;;;;22.10;66.60;;;;;;4460984;32;20385;-71
2022/09/13 02:36:32;;;;;;;;;;;22.10;66.60;;;;;;4460567;32;19986;-71
2022/09/13 02:38:59;;;;;;;;;;;22.10;66.50;;;;;;4463687;32;19978;-71
2022/09/13 02:41:34;;;;;;;;;;;22.10;66.60;;;;;;4463215;32;19973;-71
2022/09/13 02:44:09;;;;;;;;;;;22.10;66.60;;;;;;4463695;32;20013;-71
2022/09/13 02:47:01;;;;;;;;;;;22.10;66.60;;;;;;4463200;32;19970;-71
2022/09/13 02:49:33;;;;;;;;;;;22.10;66.60;;;;;;4460705;32;19977;-71
2022/09/13 02:52:16;;;;;;;;;;;22.10;66.60;;;;;;4463217;32;20112;-71
2022/09/13 02:54:50;;;;;;;;;;;22.10;66.60;;;;;;4463439;32;19978;-71
2022/09/13 02:57:24;;;;;;;;;;;22.10;66.60;;;;;;4463592;32;19984;-71
2022/09/13 02:59:49;;;;;;;;;;;22.10;66.50;;;;;;4463679;32;20022;-71
2022/09/13 03:02:17;;;;;;;;;;;22.10;66.60;;;;;;4462908;32;20091;-71
2022/09/13 03:04:42;;;;;;;;;;;22.10;66.60;;;;;;4462932;32;19974;-71
2022/09/13 03:07:09;;;;;;;;;;;22.10;66.50;;;;;;4463234;32;19959;-71
2022/09/13 03:09:35;;;;;;;;;;;22.10;66.50;;;;;;4463113;32;19980;-71
2022/09/13 03:12:09;;;;;;;;;;;22.10;66.50;;;;;;4449106;32;19974;-71
2022/09/13 03:14:43;;;;;;;;;;;22.10;66.60;;;;;;4463441;32;19966;-71
2022/09/13 03:17:09;;;;;;;;;;;22.10;66.60;;;;;;4462816;32;19986;-71
2022/09/13 03:19:50;;;;;;;;;;;22.10;66.60;;;;;;4462795;32;19958;-71
2022/09/13 03:22:19;;;;;;;;;;;22.10;66.50;;;;;;4463070;32;20368;-71
2022/09/13 03:25:00;;;;;;;;;;;22.10;66.60;;;;;;4462947;32;19966;-72
2022/09/13 03:27:32;;;;;;;;;;;22.10;66.50;;;;;;4462890;32;20099;-71
2022/09/13 03:30:01;;;;;;;;;;;22.00;66.50;;;;;;4462849;32;19978;-71
2022/09/13 03:32:33;;;;;;;;;;;22.10;66.50;;;;;;4462977;32;20393;-71
2022/09/13 03:35:11;;;;;;;;;;;22.10;66.60;;;;;;4462876;32;20100;-71
2022/09/13 03:37:54;;;;;;;;;;;22.00;66.50;;;;;;4448578;32;20463;-71
2022/09/13 03:40:37;;;;;;;;;;;22.00;66.50;;;;;;4462948;32;20107;-71
2022/09/13 03:43:02;;;;;;;;;;;22.10;66.60;;;;;;4462855;32;20083;-71
2022/09/13 03:45:31;;;;;;;;;;;22.10;66.60;;;;;;4462403;32;20485;-71
2022/09/13 03:47:57;;;;;;;;;;;22.10;66.60;;;;;;4461314;32;19974;-71
2022/09/13 03:50:24;;;;;;;;;;;22.00;66.50;;;;;;4462080;32;20001;-71
2022/09/13 03:52:51;;;;;;;;;;;22.10;66.60;;;;;;4462484;32;20018;-71
2022/09/13 03:55:20;;;;;;;;;;;22.10;66.60;;;;;;4462341;32;19974;-71
2022/09/13 03:57:46;;;;;;;;;;;22.00;66.50;;;;;;4448301;32;20383;-72
2022/09/13 04:00:12;;;;;;;;;;;22.00;66.50;;;;;;4462453;32;19974;-71
2022/09/13 04:02:38;;;;;;;;;;;22.00;66.50;;;;;;4462465;32;20589;-71
2022/09/13 04:05:03;;;;;;;;;;;22.00;66.50;;;;;;4462354;32;19962;-72
2022/09/13 04:07:29;;;;;;;;;;;22.00;66.50;;;;;;4462130;32;20307;-71
2022/09/13 04:09:55;;;;;;;;;;;22.00;66.50;;;;;;4462317;32;20092;-71
2022/09/13 04:12:20;;;;;;;;;;;22.00;66.50;;;;;;4460981;32;20091;-71
2022/09/13 04:14:46;;;;;;;;;;;22.00;66.50;;;;;;4460763;32;19974;-72
2022/09/13 04:17:12;;;;;;;;;;;22.00;66.50;;;;;;4461690;32;20119;-71
2022/09/13 04:19:38;;;;;;;;;;;22.00;66.40;;;;;;4447571;32;19981;-71
2022/09/13 04:22:03;;;;;;;;;;;22.00;66.40;;;;;;4461817;32;20050;-71
2022/09/13 04:24:30;;;;;;;;;;;22.00;66.40;;;;;;4461605;32;20005;-71
2022/09/13 04:26:56;;;;;;;;;;;22.00;66.40;;;;;;4461856;32;19978;-71
2022/09/13 04:29:22;;;;;;;;;;;22.00;66.50;;;;;;4461819;32;19982;-71
2022/09/13 04:31:49;;;;;;;;;;;22.00;66.50;;;;;;4461800;32;19966;-71
2022/09/13 04:34:17;;;;;;;;;;;22.00;66.50;;;;;;4461784;32;19966;-71
2022/09/13 04:36:43;;;;;;;;;;;22.00;66.50;;;;;;4461952;32;20494;-72
2022/09/13 04:39:09;;;;;;;;;;;22.00;66.50;;;;;;4461982;32;19986;-71
2022/09/13 04:41:35;;;;;;;;;;;22.00;66.40;;;;;;4461340;32;19958;-71
2022/09/13 04:44:01;;;;;;;;;;;22.00;66.40;;;;;;4461558;32;20088;-71
2022/09/13 04:46:27;;;;;;;;;;;22.00;66.50;;;;;;4461605;32;20578;-71
2022/09/13 04:48:52;;;;;;;;;;;22.00;66.50;;;;;;4461774;32;20490;-72
2022/09/13 04:51:20;;;;;;;;;;;22.00;66.50;;;;;;4461408;32;20497;-71
2022/09/13 04:53:46;;;;;;;;;;;22.00;66.40;;;;;;4461776;32;20036;-71
2022/09/13 04:56:14;;;;;;;;;;;22.00;66.50;;;;;;4461477;32;19994;-71
2022/09/13 04:58:40;;;;;;;;;;;22.00;66.40;;;;;;4460249;32;19977;-71
2022/09/13 05:01:07;;;;;;;;;;;22.00;66.40;;;;;;4461163;32;20285;-71
2022/09/13 05:03:33;;;;;;;;;;;22.00;66.50;;;;;;4461818;32;19989;-71
2022/09/13 05:06:06;;;;;;;;;;;22.00;66.50;;;;;;4461501;32;19978;-71
2022/09/13 05:08:32;;;;;;;;;;;22.00;66.50;;;;;;4461719;32;19966;-71
2022/09/13 05:10:58;;;;;;;;;;;22.00;66.40;;;;;;4461192;32;20391;-71
2022/09/13 05:13:27;;;;;;;;;;;22.00;66.40;;;;;;4461383;32;20104;-71
2022/09/13 05:15:59;;;;;;;;;;;22.00;66.50;;;;;;4461663;32;19985;-71
2022/09/13 05:18:25;;;;;;;;;;;22.00;66.50;;;;;;4461387;32;19978;-70
2022/09/13 05:20:55;;;;;;;;;;;22.00;66.50;;;;;;4446876;32;20013;-72
2022/09/13 05:23:21;;;;;;;;;;;22.00;66.50;;;;;;4461082;32;20092;-72
2022/09/13 05:25:56;;;;;;;;;;;22.00;66.60;;;;;;4461272;32;20103;-72
2022/09/13 05:28:23;;;;;;;;;;;22.00;66.70;;;;;;4461273;32;20296;-72
2022/09/13 05:30:56;;;;;;;;;;;22.00;66.70;;;;;;4461269;32;19985;-72
2022/09/13 05:33:21;;;;;;;;;;;22.00;66.90;;;;;;4460972;32;20450;-73
2022/09/13 05:35:47;;;;;;;;;;;21.90;66.90;;;;;;4461238;32;19989;-73
2022/09/13 05:38:13;;;;;;;;;;;21.90;67.00;;;;;;4460923;32;20284;-72
2022/09/13 05:40:38;;;;;;;;;;;21.90;67.10;;;;;;4461200;32;20010;-72
2022/09/13 05:43:04;;;;;;;;;;;21.90;67.40;;;;;;4461394;32;20457;-73
2022/09/13 05:45:30;;;;;;;;;;;21.90;67.40;;;;;;4461449;32;19970;-72
2022/09/13 05:47:56;;;;;;;;;;;22.00;67.40;;;;;;4460880;32;19954;-72
2022/09/13 05:50:21;;;;;;;;;;;21.90;67.50;;;;;;4460873;32;19974;-72
2022/09/13 05:52:51;;;;;;;;;;;21.90;67.50;;;;;;4461124;32;20391;-72
2022/09/13 05:55:16;;;;;;;;;;;21.90;67.60;;;;;;4461043;32;20414;-72
2022/09/13 05:57:43;;;;;;;;;;;21.90;67.50;;;;;;4446955;32;19984;-72
2022/09/13 06:00:09;;;;;;;;;;;21.90;67.70;;;;;;4461012;32;19966;-72
2022/09/13 06:02:35;;;;;;;;;;;21.90;67.60;;;;;;4460931;32;20096;-72
2022/09/13 06:05:00;;;;;;;;;;;21.90;67.60;;;;;;4461029;32;20006;-71
2022/09/13 06:07:27;;;;;;;;;;;21.90;67.60;;;;;;4461196;32;20299;-71
2022/09/13 06:09:53;;;;;;;;;;;21.90;67.70;;;;;;4461230;32;19962;-72
2022/09/13 06:12:18;;;;;;;;;;;21.90;67.70;;;;;;4462275;32;19997;-72
2022/09/13 06:14:44;;;;;;;;;;;21.90;67.80;;;;;;4463689;32;19954;-71
2022/09/13 06:17:10;;;;;;;;;;;21.90;67.90;;;;;;4464254;32;19977;-71
2022/09/13 06:19:36;;;;;;;;;;;21.90;68.20;;;;;;4464056;32;20056;-71
2022/09/13 06:22:01;;;;;;;;;;;21.90;67.90;;;;;;4463752;32;20001;-71
2022/09/13 06:24:27;;;;;;;;;;;21.90;67.90;;;;;;4463612;32;19977;-71
2022/09/13 06:26:53;;;;;;;;;;;21.90;68.00;;;;;;4463827;32;19962;-72
2022/09/13 06:29:18;;;;;;;;;;;21.90;67.90;;;;;;4463812;32;19962;-71
2022/09/13 06:31:44;;;;;;;;;;;21.90;67.80;;;;;;4463700;32;19958;-71
2022/09/13 06:34:13;;;;;;;;;;;22.00;68.00;;;;;;4463703;32;19981;-70
2022/09/13 06:36:38;;;;;;;;;;;22.00;67.90;;;;;;4463590;32;19992;-72
2022/09/13 06:39:05;;;;;;;;;;;22.00;68.20;;;;;;4463880;32;19970;-71
2022/09/13 06:41:31;;;;;;;;;;;22.00;67.90;;;;;;4463568;32;20153;-72
2022/09/13 06:43:58;;;;;;;;;;;22.00;67.90;;;;;;4463550;32;20303;-72
2022/09/13 06:46:25;;;;;;;;;;;22.10;68.00;;;;;;4449347;32;19993;-72
2022/09/13 06:48:51;;;;;;;;;;;22.10;67.90;;;;;;4463248;32;19970;-72
2022/09/13 06:51:18;;;;;;;;;;;22.10;67.60;;;;;;4462933;32;20084;-74
2022/09/13 06:53:44;;;;;;;;;;;22.20;67.80;;;;;;4463596;32;19973;-70
2022/09/13 06:56:12;;;;;;;;;;;22.20;68.30;;;;;;4462381;32;19974;-71
2022/09/13 06:58:39;;;;;;;;;;;22.30;68.00;;;;;;4449328;32;19988;-71
2022/09/13 07:01:09;;;;;;;;;;;22.40;67.70;;;;;;4463210;32;20033;-71
2022/09/13 07:03:35;;;;;;;;;;;22.50;67.50;;;;;;4463181;32;20116;-72
2022/09/13 07:06:05;;;;;;;;;;;22.60;66.40;;;;;;4463186;32;20014;-71
2022/09/13 07:08:31;;;;;;;;;;;22.70;66.60;;;;;;4449258;32;20016;-72
2022/09/13 07:10:56;;;;;;;;;;;22.70;66.20;;;;;;4461816;32;19958;-71
2022/09/13 07:13:22;;;;;;;;;;;22.70;66.60;;;;;;4462221;32;20445;-72
2022/09/13 07:15:48;;;;;;;;;;;22.70;66.60;;;;;;4462803;32;20048;-72
2022/09/13 07:18:14;;;;;;;;;;;22.60;66.50;;;;;;4462915;32;20307;-72
2022/09/13 07:20:39;;;;;;;;;;;22.60;66.50;;;;;;4462573;32;20052;-71
2022/09/13 07:23:05;;;;;;;;;;;22.60;66.60;;;;;;4462866;32;19970;-71
2022/09/13 07:25:31;;;;;;;;;;;22.70;66.50;;;;;;4462603;32;20084;-72
2022/09/13 07:27:56;;;;;;;;;;;22.90;66.30;;;;;;4462792;32;19966;-72
2022/09/13 07:30:24;;;;;;;;;;;23.00;65.80;;;;;;4448824;32;20014;-79
2022/09/13 07:32:50;;;;;;;;;;;23.10;65.50;;;;;;4462814;32;19982;-75
2022/09/13 07:35:16;;;;;;;;;;;23.20;65.00;;;;;;4461399;32;19977;-71
2022/09/13 07:37:44;;;;;;;;;;;23.30;64.90;;;;;;4462654;32;20328;-71
2022/09/13 07:40:10;;;;;;;;;;;23.30;65.10;;;;;;4462408;32;20323;-70
2022/09/13 07:42:35;;;;;;;;;;;23.30;65.60;;;;;;4462539;32;19973;-71
2022/09/13 07:45:01;;;;;;;;;;;23.30;65.50;;;;;;4462845;32;20203;-70
2022/09/13 07:47:27;;;;;;;;;;;23.20;65.60;;;;;;4462554;32;19958;-70
2022/09/13 07:49:52;;;;;;;;;;;23.20;66.00;;;;;;4462694;32;19959;-67
2022/09/13 07:52:19;;;;;;;;;;;23.20;65.70;;;;;;4462197;32;20055;-70
2022/09/13 07:54:46;;;;;;;;;;;23.10;65.70;;;;;;4462765;32;20013;-70
2022/09/13 07:57:12;;;;;;;;;;;23.10;65.70;;;;;;4462439;32;19986;-70
2022/09/13 07:59:38;;;;;;;;;;;23.10;65.80;;;;;;4462382;32;19990;-70
2022/09/13 08:02:04;;;;;;;;;;;23.10;65.80;;;;;;4462481;32;19959;-70
2022/09/13 08:04:30;;;;;;;;;;;23.00;65.80;;;;;;4462025;32;20411;-70
2022/09/13 08:06:56;;;;;;;;;;;23.00;66.00;;;;;;4462466;32;19980;-70
2022/09/13 08:09:21;;;;;;;;;;;23.10;66.10;;;;;;4462428;32;19998;-70
2022/09/13 08:11:51;;;;;;;;;;;23.00;66.20;;;;;;4462366;32;19963;-70
2022/09/13 08:14:18;;;;;;;;;;;23.10;66.30;;;;;;4462107;32;20038;-71
2022/09/13 08:16:44;;;;;;;;;;;23.00;66.40;;;;;;4462085;32;19993;-70
2022/09/13 08:19:11;;;;;;;;;;;23.00;66.30;;;;;;4461769;32;19974;-70
2022/09/13 08:21:38;;;;;;;;;;;23.00;66.40;;;;;;4461691;32;20076;-70
2022/09/13 08:24:05;;;;;;;;;;;23.00;66.30;;;;;;4461759;32;19981;-71
2022/09/13 08:26:31;;;;;;;;;;;23.00;66.40;;;;;;4461712;32;19984;-71
2022/09/13 08:29:01;;;;;;;;;;;23.00;66.00;;;;;;4461931;32;20506;-70
2022/09/13 08:31:27;;;;;;;;;;;23.00;65.90;;;;;;4461589;32;20421;-70
2022/09/13 08:33:54;;;;;;;;;;;23.10;66.10;;;;;;4461032;32;19974;-71
2022/09/13 08:36:22;;;;;;;;;;;23.00;65.90;;;;;;4461619;32;19980;-70
2022/09/13 08:38:50;;;;;;;;;;;23.10;66.00;;;;;;4461585;32;19976;-70
2022/09/13 08:41:24;;;;;;;;;;;23.10;66.00;;;;;;4462113;32;20028;-70
2022/09/13 08:43:57;;;;;;;;;;;23.10;65.80;;;;;;4461579;32;19970;-70
2022/09/13 08:46:25;;;;;;;;;;;23.10;65.70;;;;;;4461820;32;20392;-70
2022/09/13 08:48:52;;;;;;;;;;;23.10;65.60;;;;;;4460131;32;20419;-71
2022/09/13 08:51:39;;;;;;;;;;;23.10;65.40;;;;;;4461206;32;20402;-70
2022/09/13 08:54:05;;;;;;;;;;;23.20;65.30;;;;;;4461191;32;20005;-69
2022/09/13 08:56:39;;;;;;;;;;;23.20;65.10;;;;;;4461610;32;20025;-70
2022/09/13 08:59:05;;;;;;;;;;;23.20;65.10;;;;;;4461468;32;19985;-69
2022/09/13 09:01:40;;;;;;;;;;;23.20;64.50;;;;;;4461086;32;20014;-69
2022/09/13 09:04:05;;;;;;;;;;;23.20;64.20;;;;;;4462283;32;20316;-69
2022/09/13 09:06:33;;;;;;;;;;;23.20;64.50;;;;;;4461364;32;20420;-69
2022/09/13 09:09:09;;;;;;;;;;;23.20;64.40;;;;;;4461608;32;19966;-73
2022/09/13 09:11:42;;;;;;;;;;;23.20;64.40;;;;;;4447490;32;20053;-69
2022/09/13 09:14:16;;;;;;;;;;;23.20;64.00;;;;;;4460942;32;20423;-69
2022/09/13 09:16:44;;;;;;;;;;;23.20;64.00;;;;;;4461303;32;20053;-69
2022/09/13 09:19:18;;;;;;;;;;;23.10;63.90;;;;;;4461107;32;20079;-68
2022/09/13 09:21:44;;;;;;;;;;;23.10;63.90;;;;;;4461697;32;19981;-69
2022/09/13 09:24:17;;;;;;;;;;;23.10;63.90;;;;;;4461285;32;19985;-69
2022/09/13 09:26:43;;;;;;;;;;;23.10;63.90;;;;;;4461503;32;19974;-70
2022/09/13 09:29:24;;;;;;;;;;;23.10;63.90;;;;;;4461235;32;19966;-70
2022/09/13 09:31:59;;;;;;;;;;;23.10;63.90;;;;;;4461020;32;20000;-70
2022/09/13 09:34:24;;;;;;;;;;;23.10;63.80;;;;;;4461307;32;19985;-70
2022/09/13 09:36:50;;;;;;;;;;;23.10;63.90;;;;;;4460868;32;20295;-70
2022/09/13 09:39:16;;;;;;;;;;;23.00;63.70;;;;;;4461280;32;19980;-70
2022/09/13 09:41:42;;;;;;;;;;;23.00;63.60;;;;;;4461211;32;20317;-70
2022/09/13 09:44:17;;;;;;;;;;;23.00;63.50;;;;;;4461006;32;20052;-70
2022/09/13 09:46:46;;;;;;;;;;;23.00;63.60;;;;;;4462820;32;20384;-70
2022/09/13 09:50:08;;;;;;;;;;;23.00;63.60;;;;;;4463972;32;20053;-70
2022/09/13 09:52:01;;;;;;;;;;;23.00;63.70;;;;;;4463729;32;19966;-70
2022/09/13 09:54:29;;;;;;;;;;;23.00;63.60;;;;;;4464139;32;20095;-71
2022/09/13 09:56:55;;;;;;;;;;;23.00;63.60;;;;;;4464179;32;20112;-71
2022/09/13 09:59:26;;;;;;;;;;;23.00;63.60;;;;;;4464163;32;20506;-70
2022/09/13 10:01:54;;;;;;;;;;;23.00;63.20;;;;;;4464286;32;20112;-71
2022/09/13 10:04:21;;;;;;;;;;;23.00;62.70;;;;;;4463991;32;20415;-71
2022/09/13 10:06:48;;;;;;;;;;;23.10;62.60;;;;;;4464048;32;19989;-73
2022/09/13 10:09:18;;;;;;;;;;;23.10;62.60;;;;;;4464092;32;19985;-71
2022/09/13 10:11:57;;;;;;;;;;;23.10;62.50;;;;;;4463979;32;20112;-72
2022/09/13 10:14:44;;;;;;;;;;;23.10;62.50;;;;;;4463837;32;20028;-67
2022/09/13 10:17:22;;;;;;;;;;;23.10;62.40;;;;;;4464058;32;20140;-69
2022/09/13 10:19:53;;;;;;;;;;;23.10;62.40;;;;;;4463688;32;20035;-67
2022/09/13 10:22:19;;;;;;;;;;;23.10;62.50;;;;;;4463721;32;19974;-70
2022/09/13 10:24:45;;;;;;;;;;;23.10;62.00;;;;;;4462073;32;19984;-68
2022/09/13 10:27:23;;;;;;;;;;;23.10;61.80;;;;;;4463727;32;19974;-71
2022/09/13 10:29:50;;;;;;;;;;;23.10;62.10;;;;;;4463763;32;20108;-70
2022/09/13 10:32:18;;;;;;;;;;;23.10;61.80;;;;;;4464287;32;20028;-70
2022/09/13 10:34:44;;;;;;;;;;;23.20;61.70;;;;;;4463959;32;20052;-71
2022/09/13 10:37:34;;;;;;;;;;;23.20;61.60;;;;;;4463644;32;19992;-70
2022/09/13 10:39:59;;;;;;;;;;;23.20;61.60;;;;;;4463276;32;20431;-68
2022/09/13 10:42:27;;;;;;;;;;;23.20;61.90;;;;;;4463489;32;19958;-69
2022/09/13 10:44:54;;;;;;;;;;;23.20;61.80;;;;;;4463225;32;20014;-71
2022/09/13 10:47:30;;;;;;;;;;;23.20;61.40;;;;;;4463277;32;19978;-69
2022/09/13 10:49:56;;;;;;;;;;;23.20;61.40;;;;;;4462994;32;19966;-68
2022/09/13 10:52:23;;;;;;;;;;;23.20;61.50;;;;;;4462929;32;20136;-69
2022/09/13 10:54:48;;;;;;;;;;;23.30;61.30;;;;;;4463515;32;19985;-69
2022/09/13 10:57:46;;;;;;;;;;;23.30;61.40;;;;;;4462474;32;19979;-74
2022/09/13 11:00:16;;;;;;;;;;;23.20;61.60;;;;;;4415508;32;20018;-68
2022/09/13 11:02:51;;;;;;;;;;;23.30;61.40;;;;;;4463433;32;20010;-69
2022/09/13 11:05:36;;;;;;;;;;;23.20;61.60;;;;;;4463481;32;19970;-68
2022/09/13 11:08:02;;;;;;;;;;;23.30;61.70;;;;;;4463172;32;20443;-68
2022/09/13 11:10:28;;;;;;;;;;;23.20;61.50;;;;;;4462709;32;19962;-69
2022/09/13 11:12:54;;;;;;;;;;;23.20;61.60;;;;;;4463072;32;19962;-70
2022/09/13 11:15:25;;;;;;;;;;;23.20;61.60;;;;;;4463047;32;19962;-69
2022/09/13 11:18:04;;;;;;;;;;;23.30;61.60;;;;;;4463332;32;20315;-68
2022/09/13 11:20:30;;;;;;;;;;;23.20;61.60;;;;;;4463185;32;19970;-67
2022/09/13 11:22:59;;;;;;;;;;;23.20;61.40;;;;;;4461285;32;19973;-69
2022/09/13 11:25:43;;;;;;;;;;;23.20;61.40;;;;;;4462856;32;19978;-69
2022/09/13 11:28:29;;;;;;;;;;;23.20;61.50;;;;;;4462971;32;20001;-67
2022/09/13 11:31:10;;;;;;;;;;;23.20;61.20;;;;;;4462656;32;20300;-67
2022/09/13 11:33:47;;;;;;;;;;;23.20;61.50;;;;;;4462756;32;20108;-67
2022/09/13 11:36:38;;;;;;;;;;;23.30;61.20;;;;;;4462499;32;19974;-68
2022/09/13 11:39:07;;;;;;;;;;;23.20;61.40;;;;;;4462773;32;20052;-67
2022/09/13 11:41:35;;;;;;;;;;;23.20;61.20;;;;;;4462539;32;20018;-67
2022/09/13 11:44:16;;;;;;;;;;;23.30;61.30;;;;;;4462521;32;20040;-68
2022/09/13 11:47:00;;;;;;;;;;;23.30;61.20;;;;;;4462464;32;20127;-68
2022/09/13 11:49:26;;;;;;;;;;;23.20;61.10;;;;;;4462686;32;19985;-67
2022/09/13 11:52:05;;;;;;;;;;;23.30;61.60;;;;;;4447929;32;19994;-68
2022/09/13 11:54:43;;;;;;;;;;;23.30;61.20;;;;;;4462671;32;20407;-67
2022/09/13 11:57:12;;;;;;;;;;;23.30;61.00;;;;;;4462216;32;20410;-67
2022/09/13 11:59:50;;;;;;;;;;;23.30;61.20;;;;;;4462373;32;20340;-66
2022/09/13 12:02:19;;;;;;;;;;;23.30;61.30;;;;;;4462321;32;19996;-66
2022/09/13 12:04:51;;;;;;;;;;;23.30;61.10;;;;;;4462503;32;20021;-67
2022/09/13 12:07:33;;;;;;;;;;;23.30;60.80;;;;;;4462534;32;20077;-67
2022/09/13 12:10:02;;;;;;;;;;;23.30;60.70;;;;;;4460943;32;20036;-67
2022/09/13 12:12:31;;;;;;;;;;;23.30;60.70;;;;;;4461801;32;19985;-67
2022/09/13 12:14:59;;;;;;;;;;;23.30;60.50;;;;;;4462138;32;19970;-67
2022/09/13 12:17:31;;;;;;;;;;;23.30;60.70;;;;;;4461735;32;19985;-67
2022/09/13 12:19:59;;;;;;;;;;;23.30;60.30;;;;;;4461907;32;20159;-68
2022/09/13 12:22:27;;;;;;;;;;;23.30;60.20;;;;;;4461981;32;19977;-67
2022/09/13 12:24:55;;;;;;;;;;;23.30;60.00;;;;;;4461964;32;20009;-67
2022/09/13 12:27:20;;;;;;;;;;;23.30;60.00;;;;;;4461644;32;19966;-67
2022/09/13 12:29:50;;;;;;;;;;;23.30;60.00;;;;;;4462044;32;20104;-64
2022/09/13 12:32:17;;;;;;;;;;;23.30;60.10;;;;;;4461457;32;20427;-67
2022/09/13 12:34:49;;;;;;;;;;;23.30;59.90;;;;;;4461814;32;20018;-69
2022/09/13 12:37:18;;;;;;;;;;;23.40;59.80;;;;;;4461715;32;20088;-68
2022/09/13 12:39:57;;;;;;;;;;;23.40;59.70;;;;;;4461692;32;19973;-67
2022/09/13 12:42:22;;;;;;;;;;;23.40;59.60;;;;;;4461329;32;20016;-67
2022/09/13 12:45:04;;;;;;;;;;;23.40;59.90;;;;;;4461877;32;19959;-67
2022/09/13 12:47:48;;;;;;;;;;;23.40;59.90;;;;;;4462018;32;20358;-67
2022/09/13 12:50:31;;;;;;;;;;;23.40;59.90;;;;;;4461274;32;19977;-68
2022/09/13 12:53:08;;;;;;;;;;;23.40;59.70;;;;;;4461407;32;20025;-68
2022/09/13 12:55:52;;;;;;;;;;;23.40;59.50;;;;;;4461401;32;19966;-72
2022/09/13 12:58:42;;;;;;;;;;;23.40;59.60;;;;;;4461409;32;19974;-68
2022/09/13 13:01:11;;;;;;;;;;;23.40;59.50;;;;;;4461365;32;20052;-68
2022/09/13 13:03:44;;;;;;;;;;;23.50;59.40;;;;;;4461261;32;19966;-67
2022/09/13 13:06:25;;;;;;;;;;;23.50;59.70;;;;;;4461374;32;19970;-69
2022/09/13 13:08:53;;;;;;;;;;;23.50;59.60;;;;;;4460962;32;19966;-68
2022/09/13 13:11:23;;;;;;;;;;;23.50;59.90;;;;;;4461300;32;20028;-69
2022/09/13 13:13:55;;;;;;;;;;;23.50;60.10;;;;;;4461184;32;20375;-68
2022/09/13 13:16:24;;;;;;;;;;;23.50;60.00;;;;;;4461470;32;19997;-75
2022/09/13 13:18:54;;;;;;;;;;;23.50;59.90;;;;;;4461480;32;19966;-67
2022/09/13 13:21:22;;;;;;;;;;;23.50;60.00;;;;;;4460588;32;20387;-68
2022/09/13 13:24:08;;;;;;;;;;;23.50;60.00;;;;;;4461209;32;20004;-68
2022/09/13 13:26:46;;;;;;;;;;;23.50;60.10;;;;;;4461000;32;20068;-67
2022/09/13 13:29:14;;;;;;;;;;;23.50;61.00;;;;;;4460872;32;20092;-67
2022/09/13 13:31:41;;;;;;;;;;;23.50;60.00;;;;;;4460966;32;19986;-68
2022/09/13 13:34:12;;;;;;;;;;;23.50;60.00;;;;;;4461056;32;20127;-67
2022/09/13 13:36:38;;;;;;;;;;;23.50;60.10;;;;;;4461356;32;19978;-68
2022/09/13 13:39:07;;;;;;;;;;;23.50;60.20;;;;;;4461233;32;20064;-67
2022/09/13 13:41:37;;;;;;;;;;;23.50;61.20;;;;;;4460649;32;20131;-68
2022/09/13 13:44:22;;;;;;;;;;;23.50;60.10;;;;;;4461013;32;20087;-68
2022/09/13 13:46:52;;;;;;;;;;;23.50;60.20;;;;;;4460613;32;19962;-67
2022/09/13 13:49:30;;;;;;;;;;;23.50;60.20;;;;;;4460732;32;20333;-68
2022/09/13 13:52:05;;;;;;;;;;;23.40;60.10;;;;;;4460719;32;20000;-68
2022/09/13 13:54:52;;;;;;;;;;;23.40;60.10;;;;;;4460852;32;19982;-67
2022/09/13 13:57:47;;;;;;;;;;;23.40;60.00;;;;;;4450529;32;19974;-68
2022/09/13 14:00:21;;;;;;;;;;;23.40;60.00;;;;;;4447029;32;19993;-68
2022/09/13 14:02:49;;;;;;;;;;;23.40;60.10;;;;;;4460674;32;19993;-67
2022/09/13 14:05:24;;;;;;;;;;;23.40;60.10;;;;;;4460640;32;20033;-68
2022/09/13 14:08:14;;;;;;;;;;;23.40;60.10;;;;;;4460913;32;20496;-67
2022/09/13 14:10:43;;;;;;;;;;;23.40;60.00;;;;;;4431468;32;20300;-68
2022/09/13 14:13:17;;;;;;;;;;;23.40;59.90;;;;;;4460585;32;20462;-68
2022/09/13 14:15:46;;;;;;;;;;;23.40;59.90;;;;;;4446912;32;20010;-68
2022/09/13 14:18:20;;;;;;;;;;;23.40;59.90;;;;;;4460554;32;19974;-70
2022/09/13 14:20:56;;;;;;;;;;;23.40;59.80;;;;;;4460767;32;20100;-68
2022/09/13 14:23:22;;;;;;;;;;;23.40;60.00;;;;;;4461272;32;20399;-68
2022/09/13 14:25:53;;;;;;;;;;;23.50;61.10;;;;;;4460801;32;19967;-67
2022/09/13 14:28:20;;;;;;;;;;;23.50;60.10;;;;;;4446636;32;19974;-70
2022/09/13 14:30:46;;;;;;;;;;;23.50;60.10;;;;;;4460757;32;20056;-67
2022/09/13 14:33:22;;;;;;;;;;;23.50;60.10;;;;;;4462812;32;19985;-67